Time;durP1;ratioP1;P1;durP2;ratioP2;P2;SDS_P1;SDS_P2;PMS_P1;PMS_P2;Temp;Humidity;BMP_temperature;BMP_pressure;BME280_temperature;BME280_humidity;BME280_pressure;Samples;Min_cycle;Max_cycle;Signal;HPM_P1;HPM_P2
2022/01/24 00:00:29;;;;;;;;;8.50;7.00;;;;;-146.25;100.00;57879.81;5020592;28;45626;-84
2022/01/24 00:02:54;;;;;;;;;11.00;9.75;;;;;-146.25;100.00;57879.81;5019583;28;46890;-83
2022/01/24 00:05:20;;;;;;;;;10.00;9.75;;;;;-146.25;100.00;57879.81;5019764;28;45224;-84
2022/01/24 00:07:45;;;;;;;;;9.25;6.25;;;;;-146.25;100.00;57879.81;5020484;28;45521;-83
2022/01/24 00:10:17;;;;;;;;;11.00;8.25;;;;;-146.25;100.00;57879.81;5020803;28;45260;-83
2022/01/24 00:15:19;;;;;;;;;8.25;7.00;;;;;-146.25;100.00;57879.81;5019969;28;45323;-81
2022/01/24 00:17:51;;;;;;;;;8.50;7.00;;;;;-146.25;100.00;57879.81;5019686;28;45511;-82
2022/01/24 00:28:15;;;;;;;;;8.00;8.00;;;;;-146.25;100.00;57879.81;5020419;28;45422;-83
2022/01/24 00:30:41;;;;;;;;;8.00;7.00;;;;;-146.25;100.00;57879.81;5019992;28;45170;-83
2022/01/24 00:33:06;;;;;;;;;8.25;7.00;;;;;-146.25;100.00;57879.81;5019928;28;46553;-82
2022/01/24 00:35:33;;;;;;;;;9.00;8.25;;;;;-146.25;100.00;57879.81;5019621;28;45664;-82
2022/01/24 00:38:01;;;;;;;;;8.00;8.00;;;;;-146.25;100.00;57879.81;5019952;28;45252;-82
2022/01/24 00:40:29;;;;;;;;;6.00;6.00;;;;;-146.25;100.00;57879.81;5019667;28;45490;-82
2022/01/24 00:42:58;;;;;;;;;7.00;6.50;;;;;-146.25;100.00;57879.81;5019045;28;46153;-82
2022/01/24 00:53:19;;;;;;;;;7.00;6.00;;;;;-146.25;100.00;57879.81;5018848;28;45698;-84
2022/01/24 00:55:46;;;;;;;;;6.25;6.00;;;;;-146.25;100.00;57879.81;5018880;28;45510;-83
2022/01/24 00:58:12;;;;;;;;;7.00;6.25;;;;;-146.25;100.00;57879.81;5019393;28;45351;-83
2022/01/24 01:00:38;;;;;;;;;7.25;7.00;;;;;-146.25;100.00;57879.81;5017940;28;45593;-84
2022/01/24 01:03:05;;;;;;;;;7.00;6.75;;;;;-146.25;100.00;57879.81;5019094;28;45357;-82
2022/01/24 01:05:56;;;;;;;;;7.25;6.00;;;;;-146.25;100.00;57879.81;5019298;28;45518;-82
2022/01/24 01:19:21;;;;;;;;;5.00;5.00;;;;;-146.25;100.00;57879.81;5047817;28;44917;-81
2022/01/24 01:21:47;;;;;;;;;7.00;6.00;;;;;-146.25;100.00;57879.81;5048377;28;44791;-82
2022/01/24 01:25:05;;;;;;;;;4.50;4.50;;;;;-146.25;100.00;57879.81;5029799;28;45463;-81
2022/01/24 01:28:11;;;;;;;;;4.25;3.50;;;;;-146.25;100.00;57879.81;5025126;28;45266;-82
2022/01/24 01:37:14;;;;;;;;;9.75;8.00;;;;;-146.25;100.00;57879.81;5020531;28;45738;-81
2022/01/24 01:40:07;;;;;;;;;5.50;5.00;;;;;-146.25;100.00;57879.81;5018865;28;45375;-82
2022/01/24 01:55:56;;;;;;;;;3.75;3.75;;;;;-146.25;100.00;57879.81;5018768;28;45530;-82
2022/01/24 01:58:23;;;;;;;;;7.00;6.25;;;;;-146.25;100.00;57879.81;5018109;28;46255;-84
2022/01/24 02:01:00;;;;;;;;;5.25;5.25;;;;;-146.25;100.00;57879.81;5017039;28;45502;-82
2022/01/24 02:03:27;;;;;;;;;7.00;6.75;;;;;-146.25;100.00;57879.81;5018392;28;45439;-83
2022/01/24 02:05:54;;;;;;;;;4.50;4.50;;;;;-146.25;100.00;57879.81;5018400;28;45253;-83
2022/01/24 02:08:27;;;;;;;;;5.50;5.50;;;;;-146.25;100.00;57879.81;5018035;28;45277;-82
2022/01/24 02:10:54;;;;;;;;;7.00;6.00;;;;;-146.25;100.00;57879.81;5018088;28;45236;-82
2022/01/24 02:13:22;;;;;;;;;5.00;3.75;;;;;-146.25;100.00;57879.81;5033788;28;45646;-86
2022/01/24 02:18:36;;;;;;;;;6.00;4.25;;;;;-146.25;100.00;57879.81;5017868;28;45490;-81
2022/01/24 02:21:13;;;;;;;;;6.50;5.00;;;;;-146.25;100.00;57879.81;5018082;28;45376;-82
2022/01/24 02:23:46;;;;;;;;;5.00;5.00;;;;;-146.25;100.00;57879.81;5018214;28;45291;-84
2022/01/24 02:26:18;;;;;;;;;5.00;4.00;;;;;-146.25;100.00;57879.81;5017017;28;45540;-83
2022/01/24 02:31:38;;;;;;;;;5.50;5.50;;;;;-146.25;100.00;57879.81;5018075;28;45381;-82
2022/01/24 02:34:19;;;;;;;;;5.75;4.00;;;;;-146.25;100.00;57879.81;5018298;28;45513;-84
2022/01/24 02:36:45;;;;;;;;;7.25;6.50;;;;;-146.25;100.00;57879.81;5018080;28;45837;-81
2022/01/24 02:50:06;;;;;;;;;4.25;4.25;;;;;-146.25;100.00;57879.81;5017610;28;45372;-88
2022/01/24 02:52:34;;;;;;;;;6.00;5.00;;;;;-146.25;100.00;57879.81;5017697;28;45237;-81
2022/01/24 02:55:00;;;;;;;;;3.00;2.75;;;;;-146.25;100.00;57879.81;5017401;28;45316;-81
2022/01/24 02:57:25;;;;;;;;;4.00;3.00;;;;;-146.25;100.00;57879.81;5017820;28;45401;-81
2022/01/24 02:59:51;;;;;;;;;7.00;6.00;;;;;-146.25;100.00;57879.81;5017604;28;45816;-83
2022/01/24 03:02:16;;;;;;;;;6.50;4.25;;;;;-146.25;100.00;57879.81;5017849;28;45371;-81
2022/01/24 03:04:42;;;;;;;;;6.00;6.00;;;;;-146.25;100.00;57879.81;5017631;28;45398;-80
2022/01/24 03:07:07;;;;;;;;;6.25;6.25;;;;;-146.25;100.00;57879.81;5018200;28;45464;-84
2022/01/24 03:09:34;;;;;;;;;6.00;6.00;;;;;-146.25;100.00;57879.81;5016728;28;45496;-81
2022/01/24 03:12:04;;;;;;;;;5.00;4.25;;;;;-146.25;100.00;57879.81;5017454;28;45497;-81
2022/01/24 03:14:36;;;;;;;;;7.50;6.75;;;;;-146.25;100.00;57879.81;5017764;28;45433;-82
2022/01/24 03:17:05;;;;;;;;;4.75;4.00;;;;;-146.25;100.00;57879.81;5017960;28;45490;-86
2022/01/24 03:19:32;;;;;;;;;5.50;4.25;;;;;-146.25;100.00;57879.81;5017523;28;45570;-81
2022/01/24 03:21:58;;;;;;;;;6.25;6.00;;;;;-146.25;100.00;57879.81;5016121;28;45385;-84
2022/01/24 03:24:23;;;;;;;;;3.00;3.00;;;;;-146.25;100.00;57879.81;5017604;28;45398;-82
2022/01/24 03:26:50;;;;;;;;;2.50;2.50;;;;;-146.25;100.00;57879.81;5017821;28;45569;-81
2022/01/24 03:29:19;;;;;;;;;6.25;4.25;;;;;-146.25;100.00;57879.81;5017453;28;45502;-84
2022/01/24 03:31:45;;;;;;;;;3.25;3.25;;;;;-146.25;100.00;57879.81;5017429;28;45561;-80
2022/01/24 03:34:11;;;;;;;;;4.25;3.25;;;;;-146.25;100.00;57879.81;5017683;28;45374;-82
2022/01/24 03:36:37;;;;;;;;;5.50;5.50;;;;;-146.25;100.00;57879.81;5017903;28;45403;-81
2022/01/24 03:39:04;;;;;;;;;2.75;2.75;;;;;-146.25;100.00;57879.81;5017305;28;46156;-82
2022/01/24 03:41:29;;;;;;;;;3.00;3.00;;;;;-146.25;100.00;57879.81;5016111;28;45350;-82
2022/01/24 03:44:02;;;;;;;;;4.75;4.75;;;;;-146.25;100.00;57879.81;5017713;28;45305;-84
2022/01/24 03:46:29;;;;;;;;;6.25;4.75;;;;;-146.25;100.00;57879.81;5031937;28;45402;-81
2022/01/24 03:49:07;;;;;;;;;3.00;3.00;;;;;-146.25;100.00;57879.81;5016934;28;46058;-80
2022/01/24 03:51:37;;;;;;;;;2.00;2.00;;;;;-146.25;100.00;57879.81;5018780;28;45158;-84
2022/01/24 03:54:03;;;;;;;;;5.50;4.50;;;;;-146.25;100.00;57879.81;5017185;28;45402;-85
2022/01/24 03:56:29;;;;;;;;;4.75;4.00;;;;;-146.25;100.00;57879.81;5018156;28;45355;-80
2022/01/24 03:58:54;;;;;;;;;3.75;3.00;;;;;-146.25;100.00;57879.81;5017208;28;45638;-81
2022/01/24 04:01:21;;;;;;;;;6.50;5.00;;;;;-146.25;100.00;57879.81;5017926;28;45205;-81
2022/01/24 04:03:47;;;;;;;;;11.00;10.00;;;;;-146.25;100.00;57879.81;5018013;28;45351;-84
2022/01/24 04:06:14;;;;;;;;;4.50;4.25;;;;;-146.25;100.00;57879.81;5018205;28;45372;-80
2022/01/24 04:08:40;;;;;;;;;6.50;6.00;;;;;-146.25;100.00;57879.81;5019529;28;46198;-80
2022/01/24 04:11:10;;;;;;;;;5.50;3.00;;;;;-146.25;100.00;57879.81;5019554;28;45462;-80
2022/01/24 04:13:39;;;;;;;;;17.75;15.00;;;;;-146.25;100.00;57879.81;5019277;28;45436;-80
2022/01/24 04:23:54;;;;;;;;;8.00;7.25;;;;;-146.25;100.00;57879.81;5021465;28;45543;-83
2022/01/24 04:26:24;;;;;;;;;57.75;47.50;;;;;-146.25;100.00;57879.81;5021945;28;45478;-82
2022/01/24 04:28:50;;;;;;;;;31.75;30.50;;;;;-146.25;100.00;57879.81;5034973;28;46651;-80
2022/01/24 04:31:18;;;;;;;;;27.50;26.75;;;;;-146.25;100.00;57879.81;5020584;28;45780;-82
2022/01/24 04:33:49;;;;;;;;;21.75;18.50;;;;;-146.25;100.00;57879.81;5021048;28;45383;-82
2022/01/24 04:36:16;;;;;;;;;8.00;7.25;;;;;-146.25;100.00;57879.81;5020296;28;45486;-82
2022/01/24 04:38:42;;;;;;;;;11.00;10.00;;;;;-146.25;100.00;57879.81;5034974;28;45763;-82
2022/01/24 04:41:17;;;;;;;;;14.25;12.75;;;;;-146.25;100.00;57879.81;5019386;28;45289;-82
2022/01/24 04:43:53;;;;;;;;;23.50;22.25;;;;;-146.25;100.00;57879.81;5019984;28;45446;-83
2022/01/24 04:57:02;;;;;;;;;6.00;6.00;;;;;-146.25;100.00;57879.81;5019403;28;45535;-82
2022/01/24 04:59:29;;;;;;;;;19.00;18.25;;;;;-146.25;100.00;57879.81;5018848;28;46278;-82
2022/01/24 05:01:54;;;;;;;;;17.25;15.00;;;;;-146.25;100.00;57879.81;5019136;28;45522;-82
2022/01/24 05:04:20;;;;;;;;;12.75;11.25;;;;;-146.25;100.00;57879.81;5019092;28;45563;-83
2022/01/24 05:06:45;;;;;;;;;5.25;5.25;;;;;-146.25;100.00;57879.81;5019406;28;45590;-82
2022/01/24 05:09:12;;;;;;;;;10.50;10.50;;;;;-146.25;100.00;57879.81;5019000;28;46399;-82
2022/01/24 05:12:02;;;;;;;;;18.00;18.00;;;;;-146.25;100.00;57879.81;5018869;28;45669;-83
2022/01/24 05:25:23;;;;;;;;;21.75;20.00;;;;;-146.25;100.00;57879.81;5018748;28;45592;-83
2022/01/24 05:27:48;;;;;;;;;36.00;32.50;;;;;-146.25;100.00;57879.81;5017513;28;45635;-83
2022/01/24 05:30:15;;;;;;;;;24.75;22.25;;;;;-146.25;100.00;57879.81;5018981;28;46231;-83
2022/01/24 05:32:41;;;;;;;;;17.00;15.75;;;;;-146.25;100.00;57879.81;5017782;28;45452;-83
2022/01/24 05:35:07;;;;;;;;;12.00;11.00;;;;;-146.25;100.00;57879.81;5018633;28;45474;-81
2022/01/24 05:37:34;;;;;;;;;13.75;12.50;;;;;-146.25;100.00;57879.81;5019236;28;45300;-81
2022/01/24 05:40:00;;;;;;;;;10.00;8.75;;;;;-146.25;100.00;57879.81;5034867;28;45225;-82
2022/01/24 05:42:26;;;;;;;;;6.00;5.00;;;;;-146.25;100.00;57879.81;5018703;28;45513;-82
2022/01/24 05:44:52;;;;;;;;;19.25;19.00;;;;;-146.25;100.00;57879.81;5018661;28;45351;-83
2022/01/24 05:47:18;;;;;;;;;12.00;9.75;;;;;-146.25;100.00;57879.81;5018998;28;45466;-82
2022/01/24 05:49:44;;;;;;;;;13.75;12.25;;;;;-146.25;100.00;57879.81;5018496;28;45484;-84
2022/01/24 05:52:10;;;;;;;;;6.00;6.00;;;;;-146.25;100.00;57879.81;5018305;28;45485;-84
2022/01/24 05:54:37;;;;;;;;;6.00;6.00;;;;;-146.25;100.00;57879.81;5018332;28;45189;-82
2022/01/24 05:57:03;;;;;;;;;6.50;6.00;;;;;-146.25;100.00;57879.81;5024259;28;45665;-83
2022/01/24 05:59:29;;;;;;;;;5.50;5.00;;;;;-146.25;100.00;57879.81;5018264;28;46330;-82
2022/01/24 06:01:55;;;;;;;;;7.00;6.00;;;;;-146.25;100.00;57879.81;5016801;28;45396;-82
2022/01/24 06:04:20;;;;;;;;;8.75;7.00;;;;;-146.25;100.00;57879.81;5018344;28;45363;-83
2022/01/24 06:06:46;;;;;;;;;11.50;11.25;;;;;-146.25;100.00;57879.81;5018365;28;45323;-88
2022/01/24 06:09:11;;;;;;;;;9.25;8.25;;;;;-146.25;100.00;57879.81;5020179;28;45470;-81
2022/01/24 06:11:37;;;;;;;;;9.25;6.25;;;;;-146.25;100.00;57879.81;5027654;28;45444;-82
2022/01/24 06:14:04;;;;;;;;;12.00;10.00;;;;;-146.25;100.00;57879.81;5020914;28;45335;-83
2022/01/24 06:16:29;;;;;;;;;6.00;5.75;;;;;-146.25;100.00;57879.81;5018081;28;45316;-82
2022/01/24 06:18:55;;;;;;;;;7.00;6.00;;;;;-146.25;100.00;57879.81;5017499;28;46416;-82
2022/01/24 06:21:21;;;;;;;;;6.25;6.25;;;;;-146.25;100.00;57879.81;5016679;28;45549;-90
2022/01/24 06:23:47;;;;;;;;;5.50;5.00;;;;;-146.25;100.00;57879.81;5016624;28;45470;-81
2022/01/24 06:26:13;;;;;;;;;5.75;5.75;;;;;-146.25;100.00;57879.81;5017752;28;45996;-83
2022/01/24 06:28:39;;;;;;;;;5.25;5.25;;;;;-146.25;100.00;57879.81;5017581;28;45426;-86
2022/01/24 06:31:05;;;;;;;;;6.00;6.00;;;;;-146.25;100.00;57879.81;5016173;28;45518;-83
2022/01/24 06:33:31;;;;;;;;;6.00;6.00;;;;;-146.25;100.00;57879.81;5017874;28;45435;-83
2022/01/24 06:35:58;;;;;;;;;40.00;32.50;;;;;-146.25;100.00;57879.81;5017704;28;45430;-82
2022/01/24 06:38:25;;;;;;;;;16.75;16.00;;;;;-146.25;100.00;57879.81;5017445;28;46693;-83
2022/01/24 06:40:51;;;;;;;;;16.25;15.00;;;;;-146.25;100.00;57879.81;5022594;28;45447;-81
2022/01/24 06:43:17;;;;;;;;;16.25;15.00;;;;;-146.25;100.00;57879.81;5027478;28;45461;-81
2022/01/24 06:45:42;;;;;;;;;11.00;9.75;;;;;-146.25;100.00;57879.81;5028015;28;45472;-83
2022/01/24 06:48:08;;;;;;;;;5.25;4.50;;;;;-146.25;100.00;57879.81;5037880;28;45331;-83
2022/01/24 06:50:35;;;;;;;;;7.25;6.00;;;;;-146.25;100.00;57879.81;5038177;28;45495;-82
2022/01/24 06:53:01;;;;;;;;;5.25;5.00;;;;;-146.25;100.00;57879.81;5037879;28;45460;-83
2022/01/24 06:55:26;;;;;;;;;7.25;6.00;;;;;-146.25;100.00;57879.81;5052877;28;45489;-82
2022/01/24 06:57:52;;;;;;;;;13.25;11.75;;;;;-146.25;100.00;57879.81;5037334;28;45562;-83
2022/01/24 07:00:22;;;;;;;;;44.25;39.75;;;;;-146.25;100.00;57879.81;5037283;28;45365;-82
2022/01/24 07:02:48;;;;;;;;;35.00;29.25;;;;;-146.25;100.00;57879.81;5037387;28;45463;-82
2022/01/24 07:05:14;;;;;;;;;5.75;5.75;;;;;-146.25;100.00;57879.81;5037511;28;45808;-80
2022/01/24 07:07:39;;;;;;;;;31.75;29.25;;;;;-146.25;100.00;57879.81;5032376;28;45900;-76
2022/01/24 07:10:05;;;;;;;;;65.50;54.00;;;;;-146.25;100.00;57879.81;5048284;28;45831;-72
2022/01/24 07:12:31;;;;;;;;;8.00;6.75;;;;;-146.25;100.00;57879.81;5055677;28;45489;-74
2022/01/24 07:15:02;;;;;;;;;9.00;7.00;;;;;-146.25;100.00;57879.81;5020480;28;45372;-72
2022/01/24 07:17:57;;;;;;;;;6.00;5.00;;;;;-146.25;100.00;57879.81;5038761;28;45377;-72
2022/01/24 07:20:18;;;;;;;;;6.25;6.25;;;;;-146.25;100.00;57879.81;5046572;28;45517;-73
2022/01/24 07:22:44;;;;;;;;;3.50;3.50;;;;;-146.25;100.00;57879.81;5026076;28;45702;-73
2022/01/24 07:25:10;;;;;;;;;3.00;3.00;;;;;-146.25;100.00;57879.81;5025416;28;45530;-74
2022/01/24 07:27:35;;;;;;;;;3.00;3.00;;;;;-146.25;100.00;57879.81;5015655;28;46100;-73
2022/01/24 07:30:03;;;;;;;;;3.00;3.00;;;;;-146.25;100.00;57879.81;5026511;28;45233;-72
2022/01/24 07:32:29;;;;;;;;;5.50;5.50;;;;;-146.25;100.00;57879.81;5025451;28;45363;-73
2022/01/24 07:34:55;;;;;;;;;6.00;6.00;;;;;-146.25;100.00;57879.81;5026130;28;45415;-77
2022/01/24 07:37:22;;;;;;;;;7.00;6.00;;;;;-146.25;100.00;57879.81;5023665;28;46028;-73
2022/01/24 07:39:48;;;;;;;;;6.00;6.00;;;;;-146.25;100.00;57879.81;5024744;28;45528;-74
2022/01/24 07:42:27;;;;;;;;;5.25;4.50;;;;;-146.25;100.00;57879.81;5026846;28;45541;-73
2022/01/24 07:44:52;;;;;;;;;5.00;3.25;;;;;-146.25;100.00;57879.81;5016766;28;45479;-74
2022/01/24 07:47:18;;;;;;;;;4.50;3.00;;;;;-146.25;100.00;57879.81;5016441;28;45515;-74
2022/01/24 07:49:44;;;;;;;;;3.00;2.25;;;;;-146.25;100.00;57879.81;5016604;28;45378;-74
2022/01/24 07:52:09;;;;;;;;;5.00;5.00;;;;;-146.25;100.00;57879.81;5016847;28;45444;-74
2022/01/24 07:54:37;;;;;;;;;1.50;1.00;;;;;-146.25;100.00;57879.81;5016946;28;45324;-74
2022/01/24 07:57:02;;;;;;;;;3.25;3.25;;;;;-146.25;100.00;57879.81;5018442;28;46288;-74
2022/01/24 07:59:28;;;;;;;;;5.50;4.50;;;;;-146.25;100.00;57879.81;5020231;28;45311;-74
2022/01/24 08:01:53;;;;;;;;;6.00;5.50;;;;;-146.25;100.00;57879.81;5020513;28;45320;-74
2022/01/24 08:04:19;;;;;;;;;35.25;25.00;;;;;-146.25;100.00;57879.81;5020230;28;45373;-75
2022/01/24 08:06:47;;;;;;;;;17.75;15.00;;;;;-146.25;100.00;57879.81;5019718;28;45486;-74
2022/01/24 08:09:13;;;;;;;;;16.00;13.50;;;;;-146.25;100.00;57879.81;5020015;28;45439;-74
2022/01/24 08:11:39;;;;;;;;;14.50;13.25;;;;;-146.25;100.00;57879.81;5019864;28;45431;-74
2022/01/24 08:14:07;;;;;;;;;19.50;18.00;;;;;-146.25;100.00;57879.81;5020109;28;45514;-74
2022/01/24 08:16:34;;;;;;;;;39.25;36.00;;;;;-146.25;100.00;57879.81;5019267;28;46279;-74
2022/01/24 08:18:59;;;;;;;;;19.50;17.75;;;;;-146.25;100.00;57879.81;5019632;28;45328;-75
2022/01/24 08:21:25;;;;;;;;;23.00;21.25;;;;;-146.25;100.00;57879.81;5019869;28;45403;-75
2022/01/24 08:23:51;;;;;;;;;8.75;8.25;;;;;-146.25;100.00;57879.81;5019735;28;45192;-74
2022/01/24 08:26:17;;;;;;;;;16.00;15.25;;;;;-146.25;100.00;57879.81;5028345;28;45465;-73
2022/01/24 08:28:43;;;;;;;;;14.50;13.00;;;;;-146.25;100.00;57879.81;5039276;28;45488;-72
2022/01/24 08:31:09;;;;;;;;;13.25;13.00;;;;;-146.25;100.00;57879.81;5039285;28;45497;-76
2022/01/24 08:33:34;;;;;;;;;18.50;17.25;;;;;-146.25;100.00;57879.81;5039341;28;45463;-75
2022/01/24 08:36:00;;;;;;;;;16.75;16.50;;;;;-146.25;100.00;57879.81;5033460;28;46048;-73
2022/01/24 08:38:27;;;;;;;;;20.25;17.75;;;;;-146.25;100.00;57879.81;5028496;28;45678;-82
2022/01/24 08:40:58;;;;;;;;;13.00;9.50;;;;;-146.25;100.00;57879.81;5037151;28;45363;-88
2022/01/24 08:43:38;;;;;;;;;22.00;18.00;;;;;-146.25;100.00;57879.81;5056623;28;45392;-84
2022/01/24 08:46:04;;;;;;;;;17.00;16.50;;;;;-146.25;100.00;57879.81;5057343;28;46026;-84
2022/01/24 08:48:31;;;;;;;;;18.00;17.75;;;;;-146.25;100.00;57879.81;5058230;28;45796;-80
2022/01/24 08:50:59;;;;;;;;;17.00;15.25;;;;;-146.25;100.00;57879.81;5057567;28;45530;-79
2022/01/24 08:53:31;;;;;;;;;35.25;29.50;;;;;-146.25;100.00;57879.81;5058512;28;45508;-82
2022/01/24 08:55:59;;;;;;;;;16.25;14.50;;;;;-146.25;100.00;57879.81;5058525;28;45497;-84
2022/01/24 08:58:26;;;;;;;;;11.75;10.75;;;;;-146.25;100.00;57879.81;5058181;28;45354;-87
2022/01/24 09:00:52;;;;;;;;;24.50;21.50;;;;;-146.25;100.00;57879.81;5058597;28;45406;-83
2022/01/24 09:03:18;;;;;;;;;37.00;32.50;;;;;-146.25;100.00;57879.81;5058357;28;45422;-75
2022/01/24 09:05:46;;;;;;;;;23.00;19.00;;;;;-146.25;100.00;57879.81;5057808;28;45482;-86
2022/01/24 09:08:11;;;;;;;;;25.50;22.50;;;;;-146.25;100.00;57879.81;5057020;28;45338;-83
2022/01/24 09:10:39;;;;;;;;;18.00;16.50;;;;;-146.25;100.00;57879.81;5056890;28;45836;-87
2022/01/24 09:13:06;;;;;;;;;31.00;27.75;;;;;-146.25;100.00;57879.81;5057972;28;45344;-86
2022/01/24 09:15:31;;;;;;;;;19.00;17.75;;;;;-146.25;100.00;57879.81;5057522;28;45971;-78
2022/01/24 09:17:57;;;;;;;;;23.00;22.50;;;;;-146.25;100.00;57879.81;5058220;28;45537;-85
2022/01/24 09:20:23;;;;;;;;;19.75;18.50;;;;;-146.25;100.00;57879.81;5058067;28;45544;-87
2022/01/24 09:22:49;;;;;;;;;9.00;9.00;;;;;-146.25;100.00;57879.81;5058541;28;45514;-83
2022/01/24 09:25:16;;;;;;;;;14.67;13.33;;;;;-146.25;100.00;57879.81;5058585;28;45520;-86
2022/01/24 09:27:44;;;;;;;;;4.33;4.00;;;;;-146.25;100.00;57879.81;5058037;28;45570;-87
2022/01/24 09:30:14;;;;;;;;;8.67;8.67;;;;;-146.25;100.00;57879.81;5057769;28;45524;-82
2022/01/24 09:32:39;;;;;;;;;15.33;14.00;;;;;-146.25;100.00;57879.81;5057446;28;45557;-80
2022/01/24 09:35:08;;;;;;;;;13.33;13.33;;;;;-146.25;100.00;57879.81;5056935;28;45989;-82
2022/01/24 09:37:35;;;;;;;;;15.67;14.33;;;;;-146.25;100.00;57879.81;5057446;28;45860;-77
2022/01/24 09:40:00;;;;;;;;;13.00;13.00;;;;;-146.25;100.00;57879.81;5043049;28;45499;-77
2022/01/24 09:42:26;;;;;;;;;12.67;10.33;;;;;-146.25;100.00;57879.81;5043868;28;45372;-76
2022/01/24 09:44:52;;;;;;;;;10.33;8.33;;;;;-146.25;100.00;57879.81;5055921;28;45866;-77
2022/01/24 09:47:18;;;;;;;;;14.33;13.33;;;;;-146.25;100.00;57879.81;5057075;28;45362;-77
2022/01/24 09:49:47;;;;;;;;;12.67;11.33;;;;;-146.25;100.00;57879.81;5057623;28;45397;-77
2022/01/24 09:52:13;;;;;;;;;14.33;12.00;;;;;-146.25;100.00;57879.81;5057488;28;45368;-78
2022/01/24 09:54:39;;;;;;;;;4.00;4.00;;;;;-146.25;100.00;57879.81;5057230;28;45535;-77
2022/01/24 09:57:04;;;;;;;;;9.00;8.00;;;;;-146.25;100.00;57879.81;5057294;28;45442;-77
2022/01/24 09:59:31;;;;;;;;;6.67;6.33;;;;;-146.25;100.00;57879.81;5057722;28;45493;-77
2022/01/24 10:01:57;;;;;;;;;5.67;5.00;;;;;-146.25;100.00;57879.81;5057431;28;45365;-78
2022/01/24 10:04:25;;;;;;;;;3.67;3.67;;;;;-146.25;100.00;57879.81;5037656;28;45476;-80
2022/01/24 10:07:06;;;;;;;;;3.67;3.67;;;;;-146.25;100.00;57879.81;5034299;28;45308;-80
2022/01/24 10:09:37;;;;;;;;;2.00;2.00;;;;;-146.25;100.00;57879.81;5028435;28;45465;-77
2022/01/24 10:12:05;;;;;;;;;5.00;5.00;;;;;-146.25;100.00;57879.81;5028183;28;45480;-77
2022/01/24 10:17:20;;;;;;;;;3.00;3.00;;;;;-146.25;100.00;57879.81;5053072;28;45552;-76
2022/01/24 10:19:46;;;;;;;;;3.00;3.00;;;;;-146.25;100.00;57879.81;5051562;28;45278;-76
2022/01/24 10:22:12;;;;;;;;;3.67;3.33;;;;;-146.25;100.00;57879.81;5029987;28;45257;-76
2022/01/24 10:24:48;;;;;;;;;3.00;3.00;;;;;-146.25;100.00;57879.81;5027078;28;46217;-76
2022/01/24 10:27:28;;;;;;;;;3.33;3.33;;;;;-146.25;100.00;57879.81;5032074;28;45615;-77
2022/01/24 10:29:57;;;;;;;;;5.00;5.00;;;;;-146.25;100.00;57879.81;5029223;28;45395;-76
2022/01/24 10:32:33;;;;;;;;;6.67;6.00;;;;;-146.25;100.00;57879.81;5026981;28;45505;-76
2022/01/24 10:35:26;;;;;;;;;1.33;1.33;;;;;-146.25;100.00;57879.81;5026740;28;46088;-77
2022/01/24 10:38:39;;;;;;;;;2.33;2.33;;;;;-146.25;100.00;57879.81;5028630;28;45389;-77
2022/01/24 10:43:41;;;;;;;;;4.67;4.67;;;;;-146.25;100.00;57879.81;5027177;28;45293;-77
2022/01/24 10:46:08;;;;;;;;;2.67;2.33;;;;;-146.25;100.00;57879.81;5023763;28;45998;-76
2022/01/24 10:48:43;;;;;;;;;3.00;3.00;;;;;-146.25;100.00;57879.81;5027007;28;45502;-76
2022/01/24 10:51:23;;;;;;;;;3.00;2.33;;;;;-146.25;100.00;57879.81;5026809;28;45419;-76
2022/01/24 10:53:52;;;;;;;;;11.33;10.67;;;;;-146.25;100.00;57879.81;5024810;28;45482;-77
2022/01/24 10:56:35;;;;;;;;;3.00;3.00;;;;;-146.25;100.00;57879.81;5016332;28;45508;-76
2022/01/24 10:59:14;;;;;;;;;3.00;2.00;;;;;-146.25;100.00;57879.81;5016171;28;45491;-77
2022/01/24 11:01:41;;;;;;;;;1.00;1.00;;;;;-146.25;100.00;57879.81;5017477;28;45362;-77
2022/01/24 11:04:10;;;;;;;;;2.00;2.00;;;;;-146.25;100.00;57879.81;5017422;28;45417;-76
2022/01/24 11:06:39;;;;;;;;;0.33;0.33;;;;;-146.25;100.00;57879.81;5017016;28;45434;-76
2022/01/24 11:09:23;;;;;;;;;2.00;2.00;;;;;-146.25;100.00;57879.81;5017161;28;45438;-74
2022/01/24 11:12:12;;;;;;;;;2.33;2.00;;;;;-146.25;100.00;57879.81;5024766;28;45198;-79
2022/01/24 11:14:43;;;;;;;;;3.00;3.00;;;;;-146.25;100.00;57879.81;5027601;28;45434;-78
2022/01/24 11:17:13;;;;;;;;;2.00;1.33;;;;;-146.25;100.00;57879.81;5026869;28;45669;-74
2022/01/24 11:22:07;;;;;;;;;2.33;2.33;;;;;-146.25;100.00;57879.81;5027670;28;45504;-75
2022/01/24 11:24:46;;;;;;;;;5.33;4.67;;;;;-146.25;100.00;57879.81;5027123;28;45357;-76
2022/01/24 11:27:12;;;;;;;;;2.00;2.00;;;;;-146.25;100.00;57879.81;5026317;28;45453;-76
2022/01/24 11:29:38;;;;;;;;;12.00;12.00;;;;;-146.25;100.00;57879.81;5024578;28;45467;-77
2022/01/24 11:32:22;;;;;;;;;27.25;24.50;;;;;-146.25;100.00;57879.81;5044514;28;45580;-81
2022/01/24 11:34:50;;;;;;;;;3.00;2.00;;;;;-146.25;100.00;57879.81;5031195;28;45460;-80
2022/01/24 11:37:37;;;;;;;;;3.33;3.33;;;;;-146.25;100.00;57879.81;5018882;28;45755;-81
2022/01/24 11:40:14;;;;;;;;;3.00;3.00;;;;;-146.25;100.00;57879.81;5020617;28;45461;-81
2022/01/24 11:42:43;;;;;;;;;0.67;0.67;;;;;-146.25;100.00;57879.81;5020463;28;45410;-80
2022/01/24 11:45:14;;;;;;;;;3.67;2.67;;;;;-146.25;100.00;57879.81;5020539;28;45491;-78
2022/01/24 11:47:44;;;;;;;;;2.00;2.00;;;;;-146.25;100.00;57879.81;5020185;28;45461;-78
2022/01/24 11:50:26;;;;;;;;;3.33;3.00;;;;;-146.25;100.00;57879.81;5019795;28;45539;-75
2022/01/24 11:52:54;;;;;;;;;2.33;2.00;;;;;-146.25;100.00;57879.81;5025175;28;45818;-77
2022/01/24 11:55:34;;;;;;;;;3.00;3.00;;;;;-146.25;100.00;57879.81;5058779;28;45493;-81
2022/01/24 11:58:05;;;;;;;;;1.67;1.67;;;;;-146.25;100.00;57879.81;5058488;28;45343;-77
2022/01/24 12:00:39;;;;;;;;;2.33;2.33;;;;;-146.25;100.00;57879.81;5049008;28;45315;-78
2022/01/24 12:03:29;;;;;;;;;2.67;2.33;;;;;-146.25;100.00;57879.81;5027532;28;45485;-77
2022/01/24 12:06:04;;;;;;;;;2.00;1.33;;;;;-146.25;100.00;57879.81;5026606;28;45515;-80
2022/01/24 12:08:44;;;;;;;;;2.00;2.00;;;;;-146.25;100.00;57879.81;5034172;28;45742;-78
2022/01/24 12:11:23;;;;;;;;;3.00;3.00;;;;;-146.25;100.00;57879.81;5028675;28;45517;-77
2022/01/24 12:13:53;;;;;;;;;3.00;2.00;;;;;-146.25;100.00;57879.81;5030792;28;45362;-85
2022/01/24 12:16:20;;;;;;;;;2.33;2.00;;;;;-146.25;100.00;57879.81;5029251;28;45359;-85
2022/01/24 12:18:51;;;;;;;;;1.00;1.00;;;;;-146.25;100.00;57879.81;5029954;28;45552;-80
2022/01/24 12:21:22;;;;;;;;;2.00;2.00;;;;;-146.25;100.00;57879.81;5029070;28;45596;-80
2022/01/24 12:23:55;;;;;;;;;2.33;2.33;;;;;-146.25;100.00;57879.81;5039613;28;45388;-81
2022/01/24 12:26:25;;;;;;;;;2.00;2.00;;;;;-146.25;100.00;57879.81;5039967;28;45230;-84
2022/01/24 12:29:02;;;;;;;;;2.00;2.00;;;;;-146.25;100.00;57879.81;5038341;28;45751;-85
2022/01/24 12:31:38;;;;;;;;;2.00;2.00;;;;;-146.25;100.00;57879.81;5039487;28;45477;-80
2022/01/24 12:34:11;;;;;;;;;2.00;2.00;;;;;-146.25;100.00;57879.81;5039439;28;45362;-80
2022/01/24 12:36:50;;;;;;;;;1.67;1.67;;;;;-146.25;100.00;57879.81;5039932;28;45445;-80
2022/01/24 12:39:27;;;;;;;;;3.67;3.67;;;;;-146.25;100.00;57879.81;5039404;28;45599;-81
2022/01/24 12:42:00;;;;;;;;;3.00;3.00;;;;;-146.25;100.00;57879.81;5039306;28;45384;-80
2022/01/24 12:47:06;;;;;;;;;3.33;3.33;;;;;-146.25;100.00;57879.81;5039281;28;45446;-82
2022/01/24 12:49:32;;;;;;;;;7.00;6.00;;;;;-146.25;100.00;57879.81;5038617;28;45621;-82
2022/01/24 12:52:04;;;;;;;;;6.67;5.33;;;;;-146.25;100.00;57879.81;5039315;28;45300;-87
2022/01/24 12:54:32;;;;;;;;;6.33;6.00;;;;;-146.25;100.00;57879.81;5039789;28;45496;-87
2022/01/24 12:57:04;;;;;;;;;5.00;5.00;;;;;-146.25;100.00;57879.81;5038971;28;45510;-82
2022/01/24 12:59:29;;;;;;;;;5.00;4.67;;;;;-146.25;100.00;57879.81;5029197;28;45493;-79